createdAt,value
2022-11-07T00:00:25.797Z,98069.59
2022-11-07T00:03:28.586Z,98068.22
2022-11-07T00:06:32.626Z,98073.06
2022-11-07T00:09:35.530Z,98065.03
2022-11-07T00:12:38.180Z,98075.00
2022-11-07T00:15:40.805Z,98082.25
2022-11-07T00:18:43.439Z,98087.38
2022-11-07T00:21:47.653Z,98093.31
2022-11-07T00:24:50.283Z,98089.81
2022-11-07T00:27:52.888Z,98096.75
2022-11-07T00:30:55.525Z,98099.16
2022-11-07T00:33:59.824Z,98105.09
2022-11-07T00:37:03.921Z,98113.66
2022-11-07T00:40:08.092Z,98113.91
2022-11-07T00:43:10.794Z,98109.34
2022-11-07T00:46:15.636Z,98114.97
2022-11-07T00:49:18.312Z,98113.63
2022-11-07T00:52:22.294Z,98125.69
2022-11-07T00:55:25.004Z,98132.63
2022-11-07T00:58:27.717Z,98129.63
2022-11-07T01:01:32.510Z,98133.94
2022-11-07T01:04:52.998Z,98122.91
2022-11-07T01:07:56.992Z,98123.97
2022-11-07T01:11:00.513Z,98114.63
2022-11-07T01:14:04.169Z,98111.13
2022-11-07T01:17:06.776Z,98107.63
2022-11-07T01:20:10.710Z,98117.06
2022-11-07T01:23:15.202Z,98112.50
2022-11-07T01:26:18.482Z,98113.56
2022-11-07T01:29:21.241Z,98116.53
2022-11-07T01:32:24.036Z,98116.53
2022-11-07T01:35:26.683Z,98116.25
2022-11-07T01:38:30.787Z,98115.78
2022-11-07T01:41:36.238Z,98118.75
2022-11-07T01:44:54.805Z,98122.81
2022-11-07T01:48:03.538Z,98112.03
2022-11-07T01:51:07.490Z,98110.97
2022-11-07T01:54:13.325Z,98114.19
2022-11-07T01:57:21.322Z,98127.03
2022-11-07T02:00:25.168Z,98128.84
2022-11-07T02:03:27.825Z,98120.28
2022-11-07T02:06:39.773Z,98120.53
2022-11-07T02:09:44.379Z,98123.97
2022-11-07T02:12:47.116Z,98126.41
2022-11-07T02:15:49.847Z,98130.19
2022-11-07T02:18:52.758Z,98120.75
2022-11-07T02:22:02.715Z,98112.97
2022-11-07T02:25:12.438Z,98115.91
2022-11-07T02:28:16.882Z,98115.91
2022-11-07T02:31:19.572Z,98120.47
2022-11-07T02:34:22.346Z,98121.22
2022-11-07T02:37:29.160Z,98117.72
2022-11-07T02:40:36.093Z,98117.19
2022-11-07T02:43:44.737Z,98111.00
2022-11-07T02:46:49.812Z,98107.22
2022-11-07T02:49:54.679Z,98110.13
2022-11-07T02:52:59.413Z,98103.66
2022-11-07T02:56:06.050Z,98117.28
2022-11-07T02:59:11.050Z,98112.19
2022-11-07T03:02:16.975Z,98113.50
2022-11-07T03:05:22.854Z,98115.91
2022-11-07T03:08:27.865Z,98113.16
2022-11-07T03:11:34.060Z,98112.31
2022-11-07T03:14:39.291Z,98112.31
2022-11-07T03:17:43.946Z,98098.66
2022-11-07T03:20:49.338Z,98109.41
2022-11-07T03:23:54.498Z,98112.09
2022-11-07T03:27:01.790Z,98112.59
2022-11-07T03:30:07.140Z,98119.84
2022-11-07T03:33:12.214Z,98121.09
2022-11-07T03:36:17.181Z,98117.66
2022-11-07T03:39:25.596Z,98126.31
2022-11-07T03:42:32.533Z,98119.06
2022-11-07T03:45:37.193Z,98128.69
2022-11-07T03:48:42.249Z,98123.28
2022-11-07T03:51:47.623Z,98121.41
2022-11-07T03:54:52.536Z,98124.59
2022-11-07T03:57:59.303Z,98127.56
2022-11-07T04:01:04.533Z,98133.47
2022-11-07T04:04:09.594Z,98143.22
2022-11-07T04:07:14.113Z,98137.50
2022-11-07T04:10:19.781Z,98141.59
2022-11-07T04:13:42.885Z,98141.28
2022-11-07T04:17:09.944Z,98138.63
2022-11-07T04:20:14.815Z,98156.59
2022-11-07T04:23:19.768Z,98161.50
2022-11-07T04:26:40.933Z,98160.97
2022-11-07T04:29:47.554Z,98156.19
2022-11-07T04:32:54.320Z,98165.06
2022-11-07T04:35:59.137Z,98162.97
2022-11-07T04:39:06.051Z,98163.53
2022-11-07T04:42:11.086Z,98167.63
2022-11-07T04:45:18.046Z,98170.06
2022-11-07T04:48:23.032Z,98166.09
2022-11-07T04:51:28.178Z,98177.16
2022-11-07T04:54:32.886Z,98176.41
2022-11-07T04:57:37.528Z,98178.91
2022-11-07T05:00:43.584Z,98175.44
2022-11-07T05:03:48.188Z,98177.63
2022-11-07T05:06:52.879Z,98176.31
2022-11-07T05:09:57.633Z,98181.44
2022-11-07T05:13:02.353Z,98182.75
2022-11-07T05:16:13.567Z,98184.41
2022-11-07T05:19:19.605Z,98184.41
2022-11-07T05:22:37.901Z,98194.31
2022-11-07T05:25:43.494Z,98186.81
2022-11-07T05:28:50.930Z,98190.84
2022-11-07T05:31:57.083Z,98192.47
2022-11-07T05:35:02.434Z,98197.00
2022-11-07T05:38:08.154Z,98191.63
2022-11-07T05:41:13.415Z,98191.91
2022-11-07T05:44:18.281Z,98192.72
2022-11-07T05:47:25.066Z,98189.50
2022-11-07T05:50:32.778Z,98190.28
2022-11-07T05:53:37.575Z,98192.72
2022-11-07T05:56:44.686Z,98200.19
2022-11-07T05:59:49.207Z,98205.56
2022-11-07T06:03:00.874Z,98191.09
2022-11-07T06:06:05.569Z,98196.44
2022-11-07T06:09:10.315Z,98209.03
2022-11-07T06:12:18.249Z,98207.69
2022-11-07T06:15:23.399Z,98206.31
2022-11-07T06:18:29.981Z,98198.56
2022-11-07T06:21:36.184Z,98200.47
2022-11-07T06:24:40.756Z,98195.66
2022-11-07T06:27:45.442Z,98191.38
2022-11-07T06:30:49.943Z,98199.94
2022-11-07T06:33:56.362Z,98206.09
2022-11-07T06:37:03.346Z,98209.03
2022-11-07T06:40:09.154Z,98205.03
2022-11-07T06:43:16.325Z,98202.91
2022-11-07T06:46:23.543Z,98208.78
2022-11-07T06:49:29.971Z,98215.75
2022-11-07T06:52:35.024Z,98210.94
2022-11-07T06:55:40.430Z,98212.81
2022-11-07T06:58:44.997Z,98218.19
2022-11-07T07:01:51.543Z,98218.19
2022-11-07T07:04:58.014Z,98225.16
2022-11-07T07:08:03.590Z,98228.88
2022-11-07T07:11:11.090Z,98240.66
2022-11-07T07:14:15.969Z,98238.75
2022-11-07T07:17:22.624Z,98241.94
2022-11-07T07:20:29.306Z,98252.66
2022-11-07T07:23:34.969Z,98247.53
2022-11-07T07:26:40.085Z,98254.16
2022-11-07T07:29:45.519Z,98250.38
2022-11-07T07:32:50.765Z,98249.53
2022-11-07T07:35:57.035Z,98254.63
2022-11-07T07:39:01.999Z,98254.53
2022-11-07T07:42:06.924Z,98249.41
2022-11-07T07:45:12.980Z,98251.22
2022-11-07T07:48:17.530Z,98247.19
2022-11-07T07:51:23.817Z,98240.94
2022-11-07T07:54:31.570Z,98251.09
2022-11-07T07:57:41.543Z,98251.56
2022-11-07T08:00:46.266Z,98253.06
2022-11-07T08:04:01.311Z,98251.13
2022-11-07T08:07:08.949Z,98249.94
2022-11-07T08:10:39.740Z,98249.31
2022-11-07T08:13:39.366Z,98253.00
2022-11-07T08:16:46.823Z,98259.97
2022-11-07T08:19:51.801Z,98261.25
2022-11-07T08:23:04.165Z,98259.06
2022-11-07T08:26:09.346Z,98254.72
2022-11-07T08:29:14.136Z,98263.84
2022-11-07T08:32:18.786Z,98251.75
2022-11-07T08:35:23.941Z,98257.41
2022-11-07T08:38:32.204Z,98254.97
2022-11-07T08:41:37.561Z,98267.09
2022-11-07T08:44:45.788Z,98264.66
2022-11-07T08:47:50.653Z,98262.69
2022-11-07T08:50:56.562Z,98266.13
2022-11-07T08:54:03.558Z,98267.19
2022-11-07T08:57:08.322Z,98274.91
2022-11-07T09:00:14.518Z,98258.19
2022-11-07T09:06:45.474Z,98263.69
2022-11-07T09:09:53.141Z,98257.19
2022-11-07T09:12:58.506Z,98271.91
2022-11-07T09:16:06.574Z,98270.84
2022-11-07T09:19:13.819Z,98269.16
2022-11-07T09:22:25.013Z,98265.59
2022-11-07T09:25:34.346Z,98259.91
2022-11-07T09:28:43.672Z,98267.56
2022-11-07T09:31:52.752Z,98269.50
2022-11-07T09:35:05.054Z,98283.69
2022-11-07T09:38:10.864Z,98297.47
2022-11-07T09:41:28.014Z,98287.97
2022-11-07T09:44:52.892Z,98288.22
2022-11-07T09:48:02.446Z,98288.72
2022-11-07T09:51:08.462Z,98286.53
2022-11-07T09:54:18.105Z,98278.44
2022-11-07T09:57:27.903Z,98284.94
2022-11-07T10:00:37.589Z,98283.06
2022-11-07T10:04:10.160Z,98282.69
2022-11-07T10:07:19.825Z,98276.72
2022-11-07T10:10:41.046Z,98282.09
2022-11-07T10:14:06.635Z,98287.13
2022-11-07T10:17:21.000Z,98283.00
2022-11-07T10:20:36.867Z,98288.09
2022-11-07T10:23:56.385Z,98288.00
2022-11-07T10:27:01.518Z,98296.16
2022-11-07T10:30:21.133Z,98283.84
2022-11-07T10:33:37.010Z,98278.69
2022-11-07T10:36:42.981Z,98277.00
2022-11-07T10:39:48.372Z,98271.50
2022-11-07T10:42:57.303Z,98270.88
2022-11-07T10:46:05.644Z,98262.91
2022-11-07T10:49:23.048Z,98259.00
2022-11-07T10:52:28.683Z,98259.44
2022-11-07T10:55:51.765Z,98248.69
2022-11-07T10:58:56.516Z,98241.59
2022-11-07T11:02:03.940Z,98244.19
2022-11-07T11:05:24.604Z,98243.63
2022-11-07T11:08:32.787Z,98248.59
2022-11-07T11:11:37.887Z,98241.59
2022-11-07T11:14:44.171Z,98247.84
2022-11-07T11:18:01.006Z,98250.00
2022-11-07T11:21:07.368Z,98260.97
2022-11-07T11:24:34.102Z,98270.00
2022-11-07T11:27:41.617Z,98266.13
2022-11-07T11:30:50.019Z,98260.22
2022-11-07T11:34:01.165Z,98253.25
2022-11-07T11:37:11.084Z,98249.81
2022-11-07T11:40:21.026Z,98257.31
2022-11-07T11:43:29.356Z,98247.22
2022-11-07T11:46:41.264Z,98250.75
2022-11-07T11:49:53.379Z,98256.16
2022-11-07T11:52:59.845Z,98253.19
2022-11-07T11:56:21.298Z,98245.69
2022-11-07T11:59:49.130Z,98253.19
2022-11-07T12:03:38.257Z,98244.94
2022-11-07T12:06:49.126Z,98242.66
2022-11-07T12:09:59.212Z,98246.72
2022-11-07T12:13:13.765Z,98246.84
2022-11-07T12:16:28.928Z,98241.34
2022-11-07T12:19:43.681Z,98230.06
2022-11-07T12:23:03.060Z,98223.66
2022-11-07T12:26:16.420Z,98215.41
2022-11-07T12:29:30.429Z,98221.44
2022-11-07T12:32:45.561Z,98206.19
2022-11-07T12:35:55.652Z,98209.50
2022-11-07T12:39:28.082Z,98201.91
2022-11-07T12:42:53.748Z,98212.09
2022-11-07T12:46:12.509Z,98224.31
2022-11-07T12:49:51.656Z,98214.88
2022-11-07T12:53:19.104Z,98225.91
2022-11-07T12:56:33.541Z,98219.19
2022-11-07T12:59:42.612Z,98209.25
2022-11-07T13:03:01.014Z,98203.97
2022-11-07T13:06:26.533Z,98209.41
2022-11-07T13:09:36.166Z,98204.78
2022-11-07T13:12:50.000Z,98206.13
2022-11-07T13:16:15.110Z,98209.78
2022-11-07T13:19:32.884Z,98203.72
2022-11-07T13:22:41.522Z,98195.19
2022-11-07T13:25:48.351Z,98211.00
2022-11-07T13:29:02.363Z,98206.28
2022-11-07T13:32:10.049Z,98207.22
2022-11-07T13:35:46.904Z,98205.47
2022-11-07T13:39:11.205Z,98208.03
2022-11-07T13:45:54.010Z,98207.81
2022-11-07T13:49:15.502Z,98208.53
2022-11-07T13:52:26.518Z,98205.66
2022-11-07T13:55:51.319Z,98206.56
2022-11-07T13:59:09.175Z,98205.03
2022-11-07T14:02:28.585Z,98202.03
2022-11-07T14:05:36.268Z,98210.06
2022-11-07T14:08:46.434Z,98195.94
2022-11-07T14:12:08.661Z,98203.13
2022-11-07T14:15:20.243Z,98201.53
2022-11-07T14:18:39.530Z,98207.22
2022-11-07T14:21:48.460Z,98218.84
2022-11-07T14:25:00.919Z,98207.06
2022-11-07T14:28:09.562Z,98207.16
2022-11-07T14:31:20.324Z,98207.97
2022-11-07T14:34:28.868Z,98209.44
2022-11-07T14:37:37.025Z,98208.88
2022-11-07T14:40:43.930Z,98210.25
2022-11-07T14:43:50.382Z,98215.28
2022-11-07T14:46:56.526Z,98214.47
2022-11-07T14:50:03.863Z,98215.28
2022-11-07T14:53:12.737Z,98211.59
2022-11-07T14:56:21.782Z,98209.47
2022-11-07T14:59:33.624Z,98216.78
2022-11-07T15:02:38.685Z,98218.88
2022-11-07T15:05:47.925Z,98218.09
2022-11-07T15:09:01.066Z,98219.69
2022-11-07T15:12:17.361Z,98228.38
2022-11-07T15:15:24.150Z,98218.19
2022-11-07T15:18:29.997Z,98216.19
2022-11-07T15:21:38.317Z,98213.09
2022-11-07T15:24:45.293Z,98221.41
2022-11-07T15:27:50.476Z,98215.88
2022-11-07T15:30:57.421Z,98219.00
2022-11-07T15:34:06.742Z,98224.88
2022-11-07T15:37:14.369Z,98217.78
2022-11-07T15:40:21.895Z,98219.16
2022-11-07T15:43:27.581Z,98220.16
2022-11-07T15:46:37.043Z,98220.72
2022-11-07T15:49:41.775Z,98224.13
2022-11-07T15:52:49.221Z,98224.50
2022-11-07T15:55:54.581Z,98222.66
2022-11-07T15:59:00.278Z,98226.25
2022-11-07T16:02:05.589Z,98215.84
2022-11-07T16:05:10.670Z,98218.13
2022-11-07T16:08:20.283Z,98213.41
2022-11-07T16:11:25.434Z,98211.38
2022-11-07T16:14:43.367Z,98212.03
2022-11-07T16:17:49.465Z,98206.28
2022-11-07T16:20:55.505Z,98210.50
2022-11-07T16:24:02.906Z,98211.31
2022-11-07T16:27:07.916Z,98213.63
2022-11-07T16:30:17.383Z,98215.72
2022-11-07T16:33:22.551Z,98219.66
2022-11-07T16:36:31.003Z,98224.41
2022-11-07T16:39:37.256Z,98220.50
2022-11-07T16:42:42.213Z,98233.59
2022-11-07T16:45:48.925Z,98236.63
2022-11-07T16:48:56.011Z,98237.25
2022-11-07T16:52:01.090Z,98241.09
2022-11-07T16:55:08.381Z,98235.00
2022-11-07T16:58:25.613Z,98234.78
2022-11-07T17:01:31.689Z,98245.84
2022-11-07T17:04:36.516Z,98238.38
2022-11-07T17:07:41.246Z,98230.66
2022-11-07T17:10:47.517Z,98237.91
2022-11-07T17:13:52.610Z,98235.75
2022-11-07T17:17:00.661Z,98240.09
2022-11-07T17:20:05.646Z,98237.44
2022-11-07T17:23:10.367Z,98230.78
2022-11-07T17:26:20.138Z,98236.69
2022-11-07T17:29:24.989Z,98234.56
2022-11-07T17:32:29.746Z,98227.28
2022-11-07T17:35:35.094Z,98245.81
2022-11-07T17:38:40.031Z,98247.16
2022-11-07T17:41:47.341Z,98248.81
2022-11-07T17:44:51.965Z,98253.94
2022-11-07T17:47:57.643Z,98249.66
2022-11-07T17:51:02.179Z,98247.25
2022-11-07T17:54:08.124Z,98245.66
2022-11-07T17:57:16.013Z,98255.56
2022-11-07T18:00:24.212Z,98245.91
2022-11-07T18:03:29.403Z,98250.19
2022-11-07T18:06:36.735Z,98249.13
2022-11-07T18:09:42.671Z,98252.88
2022-11-07T18:12:50.083Z,98245.28
2022-11-07T18:15:55.002Z,98241.75
2022-11-07T18:19:01.654Z,98241.97
2022-11-07T18:22:06.953Z,98240.06
2022-11-07T18:25:11.953Z,98240.31
2022-11-07T18:28:18.437Z,98242.97
2022-11-07T18:31:24.950Z,98241.88
2022-11-07T18:34:30.351Z,98240.81
2022-11-07T18:37:35.197Z,98239.25
2022-11-07T18:40:40.248Z,98235.50
2022-11-07T18:43:46.580Z,98233.16
2022-11-07T18:46:51.429Z,98229.69
2022-11-07T18:49:57.605Z,98239.16
2022-11-07T18:53:02.422Z,98234.13
2022-11-07T18:56:09.482Z,98232.03
2022-11-07T18:59:15.882Z,98231.28
2022-11-07T19:02:20.644Z,98228.63
2022-11-07T19:05:25.805Z,98229.16
2022-11-07T19:08:31.709Z,98225.44
2022-11-07T19:11:36.685Z,98232.69
2022-11-07T19:14:43.559Z,98230.56
2022-11-07T19:17:48.665Z,98231.91
2022-11-07T19:20:55.908Z,98233.00
2022-11-07T19:24:02.561Z,98233.81
2022-11-07T19:27:07.305Z,98239.72
2022-11-07T19:30:15.147Z,98232.47
2022-11-07T19:33:20.696Z,98229.53
2022-11-07T19:36:25.329Z,98233.25
2022-11-07T19:39:31.016Z,98234.88
2022-11-07T19:42:36.020Z,98230.09
2022-11-07T19:45:43.960Z,98232.47
2022-11-07T19:48:49.307Z,98234.38
2022-11-07T19:51:54.714Z,98225.28
2022-11-07T19:54:59.567Z,98224.75
2022-11-07T19:58:04.325Z,98224.78
2022-11-07T20:01:15.369Z,98236.06
2022-11-07T20:04:21.421Z,98229.09
2022-11-07T20:07:26.284Z,98232.59
2022-11-07T20:10:31.628Z,98235.56
2022-11-07T20:13:36.469Z,98243.59
2022-11-07T20:16:42.977Z,98248.69
2022-11-07T20:19:47.980Z,98248.94
2022-11-07T20:22:52.826Z,98247.09
2022-11-07T20:25:57.782Z,98246.84
2022-11-07T20:29:03.912Z,98249.53
2022-11-07T20:32:11.586Z,98255.66
2022-11-07T20:35:16.010Z,98251.41
2022-11-07T20:38:20.720Z,98252.19
2022-11-07T20:41:27.564Z,98257.03
2022-11-07T20:44:32.204Z,98259.19
2022-11-07T20:47:39.569Z,98253.81
2022-11-07T20:50:44.951Z,98255.69
2022-11-07T20:53:50.786Z,98251.41
2022-11-07T20:56:56.603Z,98258.06
2022-11-07T21:00:01.773Z,98257.81
2022-11-07T21:03:13.469Z,98258.59
2022-11-07T21:06:18.714Z,98260.50
2022-11-07T21:09:24.194Z,98265.03
2022-11-07T21:12:29.836Z,98271.19
2022-11-07T21:15:34.848Z,98269.84
2022-11-07T21:18:43.553Z,98264.44
2022-11-07T21:21:49.733Z,98260.97
2022-11-07T21:24:54.611Z,98267.38
2022-11-07T21:27:59.943Z,98260.16
2022-11-07T21:31:07.268Z,98269.25
2022-11-07T21:34:13.427Z,98259.59
2022-11-07T21:37:18.547Z,98264.66
2022-11-07T21:40:23.362Z,98259.03
2022-11-07T21:43:29.516Z,98251.50
2022-11-07T21:46:35.071Z,98253.66
2022-11-07T21:49:41.837Z,98253.63
2022-11-07T21:52:49.364Z,98242.91
2022-11-07T21:55:54.239Z,98248.25
2022-11-07T21:59:01.219Z,98238.88
2022-11-07T22:02:05.999Z,98234.88
2022-11-07T22:05:15.500Z,98237.00
2022-11-07T22:08:24.038Z,98227.63
2022-11-07T22:11:29.086Z,98225.22
2022-11-07T22:14:33.798Z,98216.91
2022-11-07T22:17:38.749Z,98215.84
2022-11-07T22:20:45.318Z,98215.28
2022-11-07T22:23:51.277Z,98211.25
2022-11-07T22:26:57.643Z,98203.78
2022-11-07T22:30:03.865Z,98198.75
2022-11-07T22:33:08.970Z,98201.09
2022-11-07T22:36:15.773Z,98206.44
2022-11-07T22:39:20.533Z,98204.56
2022-11-07T22:42:25.455Z,98194.13
2022-11-07T22:45:30.303Z,98193.28
2022-11-07T22:48:35.500Z,98187.09
2022-11-07T22:51:42.478Z,98192.97
2022-11-07T22:54:47.281Z,98187.63
2022-11-07T22:57:53.941Z,98181.41
2022-11-07T23:00:59.045Z,98187.28
2022-11-07T23:04:04.340Z,98188.34
2022-11-07T23:07:10.918Z,98192.38
2022-11-07T23:10:16.413Z,98196.63
2022-11-07T23:13:21.298Z,98191.28
2022-11-07T23:16:32.350Z,98186.97
2022-11-07T23:19:37.572Z,98184.56
2022-11-07T23:22:43.579Z,98176.81
2022-11-07T23:25:48.042Z,98178.13
2022-11-07T23:28:53.770Z,98180.53
2022-11-07T23:31:59.267Z,98182.38
2022-11-07T23:35:04.536Z,98173.31
2022-11-07T23:38:10.704Z,98179.69
2022-11-07T23:41:16.772Z,98176.47
2022-11-07T23:44:21.522Z,98189.00
2022-11-07T23:47:46.244Z,98178.28
2022-11-07T23:51:05.171Z,98174.84
2022-11-07T23:54:28.069Z,98180.69
2022-11-07T23:57:55.805Z,98175.31
